Time;durP1;ratioP1;P1;durP2;ratioP2;P2;SDS_P1;SDS_P2;PMS_P1;PMS_P2;Temp;Humidity;BMP_temperature;BMP_pressure;BME280_temperature;BME280_humidity;BME280_pressure;Samples;Min_cycle;Max_cycle;Signal;HPM_P1;HPM_P2
2022/04/09 00:00:37;;;;;;;15.45;2.85;;;3.80;99.90;;;;;;5054872;28;20083;-67
2022/04/09 00:03:03;;;;;;;13.85;2.80;;;3.70;99.90;;;;;;5059001;28;20041;-67
2022/04/09 00:05:29;;;;;;;10.63;2.63;;;3.70;99.90;;;;;;5043193;28;20032;-67
2022/04/09 00:07:54;;;;;;;15.25;3.35;;;3.70;99.90;;;;;;5058745;28;20099;-68
2022/04/09 00:10:20;;;;;;;13.00;2.85;;;3.70;99.90;;;;;;5055506;28;20032;-68
2022/04/09 00:12:47;;;;;;;15.07;2.95;;;3.60;99.90;;;;;;5054280;28;20029;-68
2022/04/09 00:15:13;;;;;;;13.02;3.10;;;3.60;99.90;;;;;;5055007;28;20084;-68
2022/04/09 00:17:41;;;;;;;17.15;2.83;;;3.70;99.90;;;;;;5047423;28;20127;-68
2022/04/09 00:20:09;;;;;;;13.43;3.08;;;3.70;99.90;;;;;;5057349;28;20025;-67
2022/04/09 00:22:38;;;;;;;10.43;2.38;;;3.90;99.90;;;;;;5052645;28;20495;-68
2022/04/09 00:25:08;;;;;;;13.32;3.47;;;3.80;99.90;;;;;;5057531;28;20029;-68
2022/04/09 00:27:34;;;;;;;12.90;2.47;;;3.80;99.90;;;;;;5054930;28;20024;-67
2022/04/09 00:30:00;;;;;;;12.95;2.65;;;3.70;99.90;;;;;;5052907;28;20029;-67
2022/04/09 00:32:26;;;;;;;13.32;2.80;;;3.70;99.90;;;;;;5054677;28;20333;-68
2022/04/09 00:34:51;;;;;;;14.98;2.67;;;3.70;99.90;;;;;;5054873;28;20052;-68
2022/04/09 00:37:17;;;;;;;12.50;2.70;;;3.70;99.90;;;;;;5055992;28;20366;-67
2022/04/09 00:39:43;;;;;;;16.80;2.58;;;3.60;99.90;;;;;;5058055;28;20548;-67
2022/04/09 00:42:13;;;;;;;14.98;3.05;;;3.60;99.90;;;;;;5060528;28;20086;-67
2022/04/09 00:44:39;;;;;;;11.48;2.88;;;3.60;99.90;;;;;;5056576;28;20130;-68
2022/04/09 00:47:06;;;;;;;14.27;2.78;;;3.60;99.90;;;;;;5053791;28;20427;-68
2022/04/09 00:49:32;;;;;;;13.95;2.95;;;3.70;99.90;;;;;;5056933;28;20078;-68
2022/04/09 00:52:02;;;;;;;14.23;2.75;;;3.70;99.90;;;;;;5056310;28;20068;-68
2022/04/09 00:54:30;;;;;;;17.80;2.90;;;3.70;99.90;;;;;;5056684;28;20049;-68
2022/04/09 00:57:01;;;;;;;18.55;3.15;;;3.60;99.90;;;;;;5060322;28;20025;-67
2022/04/09 00:59:30;;;;;;;10.30;2.45;;;3.60;99.90;;;;;;5060962;28;20039;-68
2022/04/09 01:01:56;;;;;;;12.60;3.28;;;3.60;99.90;;;;;;5056509;28;20013;-68
2022/04/09 01:04:22;;;;;;;10.13;2.92;;;3.60;99.90;;;;;;5054019;28;21850;-68
2022/04/09 01:06:48;;;;;;;12.70;2.72;;;3.60;99.90;;;;;;5055365;28;20531;-68
2022/04/09 01:09:14;;;;;;;15.25;2.92;;;3.60;99.90;;;;;;5058156;28;20049;-68
2022/04/09 01:11:40;;;;;;;11.73;2.45;;;3.60;99.90;;;;;;5057250;28;20577;-68
2022/04/09 01:14:06;;;;;;;13.88;2.92;;;3.60;99.90;;;;;;5059873;28;20040;-67
2022/04/09 01:16:32;;;;;;;10.27;2.47;;;3.60;99.90;;;;;;5059300;28;20099;-68
2022/04/09 01:19:00;;;;;;;13.07;3.17;;;3.60;99.90;;;;;;5060043;28;20377;-68
2022/04/09 01:21:27;;;;;;;14.95;3.30;;;3.70;99.90;;;;;;5053196;28;20389;-68
2022/04/09 01:23:54;;;;;;;12.20;2.80;;;3.70;99.90;;;;;;5056891;28;20142;-68
2022/04/09 01:26:19;;;;;;;14.73;2.83;;;3.80;99.90;;;;;;5051367;28;20028;-68
2022/04/09 01:28:47;;;;;;;12.85;2.55;;;3.90;99.90;;;;;;5057068;28;20025;-67
2022/04/09 01:31:13;;;;;;;16.83;3.40;;;3.90;99.90;;;;;;5055663;28;20025;-67
2022/04/09 01:33:38;;;;;;;9.88;2.78;;;3.90;99.90;;;;;;5052331;28;20040;-68
2022/04/09 01:36:05;;;;;;;13.75;3.20;;;3.90;99.90;;;;;;5055694;28;20025;-67
2022/04/09 01:38:31;;;;;;;15.48;3.20;;;3.90;99.90;;;;;;5049535;28;20074;-68
2022/04/09 01:40:56;;;;;;;11.32;2.67;;;3.90;99.90;;;;;;5055335;28;20662;-68
2022/04/09 01:43:22;;;;;;;21.63;3.50;;;3.90;99.90;;;;;;5062696;28;20053;-68
2022/04/09 01:45:48;;;;;;;11.35;2.78;;;3.90;99.90;;;;;;5054268;28;20104;-68
2022/04/09 01:48:14;;;;;;;13.15;3.08;;;3.90;99.90;;;;;;5052276;28;20477;-68
2022/04/09 01:50:40;;;;;;;11.55;2.85;;;3.80;99.90;;;;;;5054719;28;20064;-68
2022/04/09 01:53:06;;;;;;;11.90;2.90;;;3.80;99.90;;;;;;5056742;28;20037;-67
2022/04/09 01:55:32;;;;;;;15.32;3.47;;;3.70;99.90;;;;;;5055448;28;20036;-68
2022/04/09 01:57:59;;;;;;;13.68;2.80;;;3.60;99.90;;;;;;5054420;28;20056;-68
2022/04/09 02:00:25;;;;;;;13.27;3.25;;;3.60;99.90;;;;;;5054334;28;20055;-68
2022/04/09 02:02:51;;;;;;;11.85;2.92;;;3.60;99.90;;;;;;5056841;28;20310;-67
2022/04/09 02:05:17;;;;;;;15.23;2.78;;;3.50;99.90;;;;;;5054136;28;20025;-68
2022/04/09 02:07:43;;;;;;;10.65;2.55;;;3.40;99.90;;;;;;5051311;28;20032;-67
2022/04/09 02:10:10;;;;;;;7.55;2.55;;;3.30;99.90;;;;;;5052251;28;20099;-67
2022/04/09 02:12:36;;;;;;;9.32;2.55;;;3.20;99.90;;;;;;5056261;28;20118;-67
2022/04/09 02:15:10;;;;;;;13.73;2.90;;;3.20;99.90;;;;;;5054042;28;20074;-67
2022/04/09 02:17:38;;;;;;;9.80;2.17;;;3.10;99.90;;;;;;5051184;28;20597;-68
2022/04/09 02:20:05;;;;;;;13.50;2.28;;;3.00;99.90;;;;;;5055212;28;20032;-68
2022/04/09 02:22:38;;;;;;;8.90;2.30;;;3.10;99.90;;;;;;5055519;28;20131;-67
2022/04/09 02:25:09;;;;;;;11.88;2.10;;;3.00;99.90;;;;;;5056992;28;20040;-68
2022/04/09 02:27:35;;;;;;;12.90;2.15;;;2.90;99.90;;;;;;5052418;28;20029;-67
2022/04/09 02:30:05;;;;;;;9.85;2.50;;;3.00;99.90;;;;;;5051265;28;20170;-67
2022/04/09 02:32:31;;;;;;;12.38;1.98;;;2.90;99.90;;;;;;5054549;28;20060;-67
2022/04/09 02:34:56;;;;;;;11.20;2.30;;;2.90;99.90;;;;;;5051589;28;20033;-68
2022/04/09 02:37:23;;;;;;;6.78;1.48;;;2.90;99.90;;;;;;5055227;28;20084;-67
2022/04/09 02:39:49;;;;;;;5.28;1.40;;;2.90;99.90;;;;;;5056271;28;20896;-68
2022/04/09 02:42:15;;;;;;;8.13;1.73;;;2.90;99.90;;;;;;5055453;28;20033;-67
2022/04/09 02:44:43;;;;;;;8.25;1.50;;;2.90;99.90;;;;;;5055076;28;20747;-68
2022/04/09 02:47:09;;;;;;;8.32;1.52;;;2.90;99.90;;;;;;5056330;28;20381;-68
2022/04/09 02:49:35;;;;;;;11.02;1.90;;;2.90;99.90;;;;;;5054215;28;20025;-68
2022/04/09 02:52:01;;;;;;;6.97;1.48;;;2.90;99.90;;;;;;5053180;28;20127;-68
2022/04/09 02:54:26;;;;;;;9.57;1.75;;;2.90;99.90;;;;;;5057731;28;20143;-68
2022/04/09 02:56:52;;;;;;;9.18;1.90;;;2.80;99.90;;;;;;5057004;28;20032;-68
2022/04/09 02:59:17;;;;;;;9.07;1.90;;;2.80;99.90;;;;;;5059689;28;20028;-68
2022/04/09 03:01:46;;;;;;;11.45;2.03;;;2.80;99.90;;;;;;5052390;28;20080;-68
2022/04/09 03:04:12;;;;;;;7.78;1.60;;;2.90;99.90;;;;;;5054296;28;20056;-68
2022/04/09 03:06:38;;;;;;;7.93;1.88;;;3.00;99.90;;;;;;5055178;28;20021;-68
2022/04/09 03:09:04;;;;;;;9.70;1.77;;;3.00;99.90;;;;;;5055084;28;20056;-68
2022/04/09 03:11:30;;;;;;;10.70;1.75;;;2.90;99.90;;;;;;5058977;28;20104;-68
2022/04/09 03:13:56;;;;;;;12.00;2.05;;;3.00;99.90;;;;;;5058417;28;20060;-68
2022/04/09 03:16:21;;;;;;;6.75;1.52;;;3.00;99.90;;;;;;5061600;28;20550;-67
2022/04/09 03:18:48;;;;;;;7.97;1.90;;;2.90;99.90;;;;;;5058402;28;20056;-67
2022/04/09 03:21:14;;;;;;;10.02;2.13;;;3.00;99.90;;;;;;5055513;28;20033;-68
2022/04/09 03:23:40;;;;;;;9.32;1.95;;;3.00;99.90;;;;;;5055545;28;20148;-67
2022/04/09 03:26:05;;;;;;;9.02;1.58;;;3.00;99.90;;;;;;5055756;28;20048;-68
2022/04/09 03:28:31;;;;;;;7.22;1.73;;;2.90;99.90;;;;;;5062765;28;20041;-67
2022/04/09 03:30:57;;;;;;;8.23;1.75;;;2.90;99.90;;;;;;5055276;28;20079;-67
2022/04/09 03:33:23;;;;;;;11.57;1.80;;;3.00;99.90;;;;;;5057270;28;20050;-68
2022/04/09 03:35:49;;;;;;;7.78;2.03;;;2.90;99.90;;;;;;5058973;28;20104;-67
2022/04/09 03:38:15;;;;;;;8.98;1.70;;;2.90;99.90;;;;;;5053662;28;20029;-68
2022/04/09 03:40:42;;;;;;;11.13;2.20;;;2.90;99.90;;;;;;5057067;28;20021;-68
2022/04/09 03:43:08;;;;;;;8.55;2.15;;;2.90;99.90;;;;;;5054915;28;20045;-68
2022/04/09 03:45:34;;;;;;;12.30;1.95;;;2.90;99.90;;;;;;5057889;28;20025;-68
2022/04/09 03:48:00;;;;;;;9.25;1.70;;;2.80;99.90;;;;;;5056753;28;20106;-68
2022/04/09 03:50:26;;;;;;;8.02;1.75;;;2.90;99.90;;;;;;5058593;28;20025;-68
2022/04/09 03:52:52;;;;;;;7.18;1.58;;;2.80;99.90;;;;;;5054181;28;20052;-68
2022/04/09 03:55:18;;;;;;;10.23;1.75;;;2.90;99.90;;;;;;5051986;28;20033;-68
2022/04/09 03:57:44;;;;;;;6.85;1.67;;;2.90;99.90;;;;;;5057615;28;20026;-67
2022/04/09 04:00:10;;;;;;;9.10;1.88;;;2.90;99.90;;;;;;5057265;28;20059;-68
2022/04/09 04:02:36;;;;;;;8.65;1.88;;;3.10;99.90;;;;;;5057208;28;20033;-68
2022/04/09 04:05:03;;;;;;;8.65;1.60;;;3.10;99.90;;;;;;5053785;28;20021;-68
2022/04/09 04:07:33;;;;;;;6.68;1.75;;;3.10;99.90;;;;;;5057216;28;20823;-67
2022/04/09 04:10:09;;;;;;;8.48;1.77;;;3.20;99.90;;;;;;5056830;28;20075;-68
2022/04/09 04:12:34;;;;;;;9.60;1.75;;;3.20;99.90;;;;;;5057125;28;20056;-68
2022/04/09 04:15:00;;;;;;;12.02;2.17;;;3.20;99.90;;;;;;5053983;28;20521;-67
2022/04/09 04:17:26;;;;;;;8.05;1.42;;;3.10;99.90;;;;;;5057165;28;20048;-68
2022/04/09 04:19:51;;;;;;;9.45;1.77;;;3.00;99.90;;;;;;5057564;28;20380;-68
2022/04/09 04:22:18;;;;;;;7.80;1.75;;;3.00;99.90;;;;;;5055315;28;20049;-68
2022/04/09 04:24:48;;;;;;;8.65;1.70;;;2.90;99.90;;;;;;5056089;28;20083;-67
2022/04/09 04:27:14;;;;;;;9.93;1.75;;;2.90;99.90;;;;;;5054948;28;20025;-67
2022/04/09 04:29:40;;;;;;;9.52;1.60;;;2.90;99.90;;;;;;5059979;28;20033;-67
2022/04/09 04:32:06;;;;;;;8.13;1.30;;;2.80;99.90;;;;;;5052759;28;20480;-67
2022/04/09 04:34:31;;;;;;;10.00;1.90;;;2.80;99.90;;;;;;5055207;28;20501;-68
2022/04/09 04:36:57;;;;;;;8.27;1.98;;;2.70;99.90;;;;;;5055650;28;20035;-68
2022/04/09 04:39:23;;;;;;;10.02;1.55;;;2.70;99.90;;;;;;5056834;28;20088;-68
2022/04/09 04:41:48;;;;;;;7.40;1.92;;;2.70;99.90;;;;;;5055807;28;20381;-68
2022/04/09 04:44:14;;;;;;;11.80;2.00;;;2.60;99.90;;;;;;5049921;28;20051;-69
2022/04/09 04:46:41;;;;;;;7.13;2.03;;;2.60;99.90;;;;;;5056893;28;20021;-68
2022/04/09 04:49:07;;;;;;;9.15;1.63;;;2.70;99.90;;;;;;5057229;28;20119;-68
2022/04/09 04:51:32;;;;;;;9.77;1.90;;;2.70;99.90;;;;;;5054631;28;20029;-68
2022/04/09 04:53:58;;;;;;;11.30;2.00;;;2.70;99.90;;;;;;5058053;28;20022;-67
2022/04/09 04:56:25;;;;;;;6.65;1.70;;;2.80;99.90;;;;;;5066785;28;20033;-68
2022/04/09 04:58:51;;;;;;;9.32;1.98;;;2.70;99.90;;;;;;5058006;28;20036;-67
2022/04/09 05:01:17;;;;;;;9.68;2.10;;;2.80;99.90;;;;;;5054235;28;20052;-67
2022/04/09 05:03:42;;;;;;;8.55;2.20;;;2.90;99.90;;;;;;5056382;28;20044;-67
2022/04/09 05:06:08;;;;;;;10.80;1.77;;;3.00;99.90;;;;;;5054615;28;20029;-67
2022/04/09 05:08:34;;;;;;;8.38;1.70;;;3.20;99.90;;;;;;5055536;28;20041;-68
2022/04/09 05:11:00;;;;;;;8.27;2.03;;;3.20;99.90;;;;;;5056086;28;20036;-68
2022/04/09 05:13:25;;;;;;;12.05;1.88;;;3.20;99.90;;;;;;5054361;28;20727;-68
2022/04/09 05:15:51;;;;;;;11.60;2.10;;;3.30;99.90;;;;;;5060005;28;20037;-68
2022/04/09 05:18:17;;;;;;;9.55;2.08;;;3.20;99.90;;;;;;5049897;28;20532;-68
2022/04/09 05:20:42;;;;;;;10.18;2.13;;;3.20;99.90;;;;;;5054446;28;20543;-68
2022/04/09 05:23:08;;;;;;;9.07;1.92;;;3.10;99.90;;;;;;5053933;28;20389;-68
2022/04/09 05:25:34;;;;;;;8.43;2.38;;;3.10;99.90;;;;;;5053862;28;20409;-68
2022/04/09 05:28:04;;;;;;;11.40;2.33;;;3.00;99.90;;;;;;5051807;28;20025;-68
2022/04/09 05:30:34;;;;;;;10.60;2.17;;;3.00;99.90;;;;;;5051841;28;20115;-68
2022/04/09 05:33:00;;;;;;;13.13;1.92;;;3.00;99.90;;;;;;5049162;28;20025;-67
2022/04/09 05:35:26;;;;;;;10.43;2.10;;;3.00;99.90;;;;;;5046813;28;20044;-68
2022/04/09 05:37:52;;;;;;;6.85;1.65;;;3.10;99.90;;;;;;5051850;28;20456;-69
2022/04/09 05:40:18;;;;;;;9.10;2.45;;;3.20;99.90;;;;;;5052331;28;20021;-68
2022/04/09 05:42:44;;;;;;;10.73;2.08;;;3.40;99.90;;;;;;5046433;28;20488;-68
2022/04/09 05:45:13;;;;;;;10.70;2.05;;;3.50;99.90;;;;;;5048810;28;20032;-68
2022/04/09 05:47:41;;;;;;;13.15;2.55;;;3.60;99.90;;;;;;5049428;28;20028;-68
2022/04/09 05:50:08;;;;;;;12.75;2.17;;;3.70;99.90;;;;;;5055084;28;20032;-68
2022/04/09 05:52:34;;;;;;;12.40;2.25;;;4.00;99.90;;;;;;5051132;28;20029;-68
2022/04/09 05:54:59;;;;;;;9.85;2.08;;;4.40;99.90;;;;;;5056900;28;20035;-68
2022/04/09 05:57:25;;;;;;;11.25;2.55;;;4.60;99.90;;;;;;5061562;28;20038;-69
2022/04/09 05:59:50;;;;;;;10.60;2.25;;;4.70;99.90;;;;;;5058315;28;20036;-68
2022/04/09 06:02:16;;;;;;;10.57;2.22;;;4.70;99.90;;;;;;5055784;28;20086;-68
2022/04/09 06:04:42;;;;;;;8.75;2.08;;;4.60;99.90;;;;;;5056301;28;20044;-68
2022/04/09 06:07:09;;;;;;;9.73;2.03;;;4.60;99.90;;;;;;5057476;28;20036;-68
2022/04/09 06:09:35;;;;;;;8.30;2.10;;;4.60;99.90;;;;;;5053545;28;20463;-67
2022/04/09 06:12:01;;;;;;;12.02;2.00;;;4.60;99.90;;;;;;5060201;28;20033;-67
2022/04/09 06:14:27;;;;;;;10.20;1.95;;;4.50;99.90;;;;;;5054387;28;20163;-68
2022/04/09 06:16:53;;;;;;;10.68;1.83;;;4.60;99.90;;;;;;5054414;28;20046;-68
2022/04/09 06:19:19;;;;;;;8.90;2.03;;;5.10;99.90;;;;;;5054157;28;20028;-68
2022/04/09 06:21:44;;;;;;;12.45;1.70;;;5.80;99.90;;;;;;5052044;28;20029;-68
2022/04/09 06:24:10;;;;;;;9.57;2.25;;;5.70;99.90;;;;;;5052254;28;20180;-68
2022/04/09 06:26:36;;;;;;;11.55;2.55;;;5.90;99.90;;;;;;5050420;28;20029;-68
2022/04/09 06:29:01;;;;;;;10.50;2.08;;;6.50;99.90;;;;;;5053748;28;20033;-68
2022/04/09 06:31:27;;;;;;;11.63;2.25;;;6.80;99.90;;;;;;5053766;28;20205;-68
2022/04/09 06:33:53;;;;;;;12.45;2.10;;;7.30;99.90;;;;;;5051198;28;20037;-68
2022/04/09 06:36:18;;;;;;;13.05;2.38;;;8.20;99.90;;;;;;5047303;28;20035;-68
2022/04/09 06:38:44;;;;;;;9.85;2.33;;;9.20;99.90;;;;;;5055656;28;20135;-68
2022/04/09 06:41:10;;;;;;;12.98;2.45;;;9.80;99.90;;;;;;5059735;28;20075;-68
2022/04/09 06:43:35;;;;;;;12.23;1.83;;;10.60;99.90;;;;;;5057249;28;20542;-69
2022/04/09 06:46:01;;;;;;;13.20;1.92;;;11.30;99.90;;;;;;5055880;28;20051;-69
2022/04/09 06:48:27;;;;;;;12.27;2.05;;;11.30;99.90;;;;;;5057735;28;20041;-74
2022/04/09 06:50:52;;;;;;;11.25;2.25;;;10.80;99.90;;;;;;5051520;28;20029;-69
2022/04/09 06:53:21;;;;;;;10.85;2.03;;;10.60;99.90;;;;;;5059632;28;20029;-69
2022/04/09 06:55:46;;;;;;;10.65;2.08;;;10.10;99.90;;;;;;5051159;28;20059;-77
2022/04/09 06:58:12;;;;;;;6.72;1.67;;;10.00;99.90;;;;;;5052448;28;20029;-77
2022/04/09 07:00:38;;;;;;;12.63;2.28;;;9.90;99.90;;;;;;5041366;28;20105;-69
2022/04/09 07:03:03;;;;;;;13.55;2.00;;;9.50;99.90;;;;;;5057150;28;20044;-69
2022/04/09 07:05:29;;;;;;;12.65;1.98;;;9.20;99.90;;;;;;5060597;28;20533;-70
2022/04/09 07:07:55;;;;;;;11.15;2.40;;;8.80;99.90;;;;;;5059751;28;20998;-70
2022/04/09 07:10:20;;;;;;;14.52;2.42;;;8.50;99.90;;;;;;5062069;28;20033;-69
2022/04/09 07:12:46;;;;;;;12.57;2.08;;;8.00;99.90;;;;;;5040830;28;20040;-70
2022/04/09 07:15:12;;;;;;;13.57;2.67;;;7.80;99.90;;;;;;5043834;28;20030;-70
2022/04/09 07:17:41;;;;;;;8.23;1.90;;;7.50;99.90;;;;;;5042995;28;20044;-70
2022/04/09 07:20:07;;;;;;;12.73;1.88;;;7.70;99.90;;;;;;5058288;28;20025;-68
2022/04/09 07:22:35;;;;;;;10.02;2.25;;;7.90;99.90;;;;;;5054761;28;20017;-68
2022/04/09 07:25:01;;;;;;;8.18;1.90;;;8.10;99.90;;;;;;5062250;28;20034;-68
2022/04/09 07:27:41;;;;;;;8.32;1.95;;;8.40;99.90;;;;;;5063567;28;20052;-68
2022/04/09 07:30:10;;;;;;;13.27;2.53;;;9.00;99.90;;;;;;5060569;28;20039;-68
2022/04/09 07:32:36;;;;;;;13.20;2.15;;;9.10;99.90;;;;;;5063386;28;20017;-68
2022/04/09 07:35:02;;;;;;;9.20;2.10;;;9.50;99.90;;;;;;5060822;28;20025;-68
2022/04/09 07:37:28;;;;;;;10.35;1.90;;;9.90;99.90;;;;;;5063773;28;20021;-68
2022/04/09 07:39:53;;;;;;;11.15;1.95;;;10.00;99.90;;;;;;5040539;28;20532;-68
2022/04/09 07:42:20;;;;;;;7.25;1.55;;;10.70;99.90;;;;;;5060485;28;20039;-69
2022/04/09 07:44:46;;;;;;;9.48;2.10;;;11.50;99.90;;;;;;5063367;28;20036;-69
2022/04/09 07:47:11;;;;;;;17.90;2.67;;;12.60;99.90;;;;;;5060848;28;20051;-69
2022/04/09 07:49:37;;;;;;;16.67;2.30;;;13.20;99.90;;;;;;5060729;28;20033;-69
2022/04/09 07:52:03;;;;;;;11.63;2.13;;;14.00;99.90;;;;;;5060205;28;20106;-69
2022/04/09 07:54:30;;;;;;;13.20;3.08;;;14.50;99.90;;;;;;5061979;28;20021;-69
2022/04/09 07:56:56;;;;;;;8.45;3.38;;;13.90;99.90;;;;;;5058116;28;20037;-69
2022/04/09 07:59:22;;;;;;;6.55;1.63;;;15.00;99.90;;;;;;5057293;28;20017;-69
2022/04/09 08:01:48;;;;;;;11.75;2.08;;;14.30;98.30;;;;;;5059850;28;20520;-68
2022/04/09 08:04:13;;;;;;;9.45;1.80;;;13.40;99.90;;;;;;5057377;28;20469;-69
2022/04/09 08:06:39;;;;;;;9.82;1.75;;;14.20;99.90;;;;;;5066010;28;20492;-67
2022/04/09 08:09:05;;;;;;;7.68;1.63;;;13.90;99.90;;;;;;5065068;28;20056;-68
2022/04/09 08:11:31;;;;;;;10.27;1.70;;;14.50;98.90;;;;;;5059879;28;20044;-68
2022/04/09 08:13:57;;;;;;;9.20;1.52;;;14.70;92.30;;;;;;5053709;28;20111;-69
2022/04/09 08:16:25;;;;;;;9.05;1.60;;;14.70;80.00;;;;;;5061381;28;20481;-68
2022/04/09 08:18:51;;;;;;;9.98;1.80;;;15.40;91.30;;;;;;5060885;28;20043;-68
2022/04/09 08:21:18;;;;;;;10.13;1.50;;;15.90;74.20;;;;;;5067922;28;20144;-68
2022/04/09 08:23:44;;;;;;;9.15;1.67;;;16.00;78.10;;;;;;5066249;28;20037;-68
2022/04/09 08:26:09;;;;;;;11.63;2.38;;;15.70;69.10;;;;;;5070706;28;20032;-69
2022/04/09 08:28:36;;;;;;;8.63;1.65;;;16.60;80.40;;;;;;5066920;28;20048;-69
2022/04/09 08:31:02;;;;;;;10.20;1.70;;;16.90;72.70;;;;;;5070152;28;20067;-69
2022/04/09 08:33:28;;;;;;;6.20;1.33;;;16.50;65.40;;;;;;5060464;28;20131;-69
2022/04/09 08:35:54;;;;;;;6.47;1.48;;;16.60;77.20;;;;;;5063329;28;20480;-69
2022/04/09 08:38:19;;;;;;;7.28;1.52;;;16.50;66.30;;;;;;5059341;28;20678;-69
2022/04/09 08:40:46;;;;;;;7.90;1.55;;;15.30;71.10;;;;;;5061200;28;20044;-68
2022/04/09 08:43:12;;;;;;;9.65;1.38;;;15.10;84.40;;;;;;5081232;28;20041;-69
2022/04/09 08:45:41;;;;;;;8.30;1.45;;;14.00;84.80;;;;;;5060003;28;20040;-68
2022/04/09 08:48:08;;;;;;;7.80;1.48;;;14.90;90.60;;;;;;5061318;28;20025;-68
2022/04/09 08:50:37;;;;;;;7.63;1.23;;;13.10;80.10;;;;;;5052630;28;20048;-68
2022/04/09 08:53:07;;;;;;;5.75;1.35;;;13.40;74.30;;;;;;5061932;28;20021;-68
2022/04/09 08:55:36;;;;;;;9.73;1.85;;;15.10;94.30;;;;;;5054005;28;20056;-69
2022/04/09 08:58:03;;;;;;;7.28;1.30;;;15.40;65.40;;;;;;5062267;28;20079;-69
2022/04/09 09:00:33;;;;;;;7.93;1.23;;;16.60;65.80;;;;;;5060663;28;20495;-70
2022/04/09 09:03:01;;;;;;;6.80;1.38;;;16.50;58.90;;;;;;5079134;28;20400;-69
2022/04/09 09:05:31;;;;;;;8.90;1.58;;;15.70;59.90;;;;;;5058762;28;20570;-68
2022/04/09 09:07:56;;;;;;;11.50;3.75;;;15.10;72.40;;;;;;5050809;28;20151;-69
2022/04/09 09:10:22;;;;;;;9.52;2.58;;;14.90;91.50;;;;;;5062105;28;20430;-69
2022/04/09 09:12:58;;;;;;;6.00;1.30;;;15.10;71.40;;;;;;5060735;28;20013;-68
2022/04/09 09:15:25;;;;;;;8.75;1.35;;;14.50;73.10;;;;;;5065538;28;20024;-69
2022/04/09 09:17:55;;;;;;;7.97;1.40;;;15.00;90.70;;;;;;5069026;28;20106;-69
2022/04/09 09:20:21;;;;;;;7.28;1.30;;;15.40;85.60;;;;;;5057831;28;20025;-69
2022/04/09 09:22:49;;;;;;;11.65;1.95;;;15.00;73.30;;;;;;5054268;28;20082;-67
2022/04/09 09:25:15;;;;;;;8.15;1.65;;;14.70;96.70;;;;;;5066105;28;20037;-69
2022/04/09 09:27:40;;;;;;;8.25;1.40;;;13.80;93.20;;;;;;5068932;28;20127;-69
2022/04/09 09:30:09;;;;;;;7.85;1.60;;;13.80;75.50;;;;;;5056713;28;20037;-69
2022/04/09 09:32:35;;;;;;;6.82;1.60;;;13.80;99.90;;;;;;5060634;28;20550;-68
2022/04/09 09:35:02;;;;;;;11.20;1.52;;;13.40;93.00;;;;;;5052464;28;20520;-69
2022/04/09 09:37:29;;;;;;;6.68;1.50;;;13.60;95.40;;;;;;5072454;28;20029;-67
2022/04/09 09:39:56;;;;;;;9.30;1.40;;;13.40;98.20;;;;;;5056279;28;20037;-68
2022/04/09 09:42:23;;;;;;;10.13;1.60;;;13.30;93.80;;;;;;5071459;28;20043;-68
2022/04/09 09:44:50;;;;;;;7.40;1.42;;;13.70;99.90;;;;;;5063506;28;20025;-68
2022/04/09 09:47:17;;;;;;;8.35;1.42;;;14.00;99.90;;;;;;5069488;28;20044;-69
2022/04/09 09:49:50;;;;;;;8.63;1.80;;;14.10;96.40;;;;;;5070224;28;20025;-69
2022/04/09 09:52:15;;;;;;;7.53;1.50;;;14.30;91.40;;;;;;5061883;28;20025;-68
2022/04/09 09:55:14;;;;;;;6.15;1.40;;;15.20;83.80;;;;;;5049412;28;20039;-69
2022/04/09 09:57:40;;;;;;;8.50;1.60;;;16.20;60.20;;;;;;5047455;28;20048;-69
2022/04/09 10:00:10;;;;;;;9.05;1.70;;;16.80;64.30;;;;;;5063248;28;20032;-69
2022/04/09 10:02:38;;;;;;;6.07;1.50;;;16.70;58.90;;;;;;5055376;28;20124;-68
2022/04/09 10:05:05;;;;;;;8.85;2.35;;;17.00;70.70;;;;;;5071491;28;20020;-69
2022/04/09 10:07:31;;;;;;;10.57;2.13;;;16.80;58.10;;;;;;5065022;28;20035;-68
2022/04/09 10:10:01;;;;;;;9.77;1.80;;;15.50;62.70;;;;;;5066734;28;20072;-68
2022/04/09 10:12:27;;;;;;;8.63;2.15;;;13.30;80.50;;;;;;5059959;28;20025;-68
2022/04/09 10:14:59;;;;;;;10.25;1.80;;;13.00;99.90;;;;;;5058715;28;20056;-68
2022/04/09 10:17:27;;;;;;;7.93;1.70;;;12.00;99.90;;;;;;5049638;28;20051;-69
2022/04/09 10:19:54;;;;;;;9.55;2.10;;;11.40;99.90;;;;;;5057657;28;20021;-68
2022/04/09 10:22:25;;;;;;;7.40;1.50;;;10.80;99.90;;;;;;5050054;28;20496;-79
2022/04/09 10:24:54;;;;;;;10.70;1.67;;;11.30;99.90;;;;;;5054447;28;20047;-69
2022/04/09 10:27:44;;;;;;;8.65;2.30;;;11.90;99.90;;;;;;5056083;28;20024;-68
2022/04/09 10:30:16;;;;;;;7.35;1.42;;;13.70;99.90;;;;;;5085914;28;20040;-67
2022/04/09 10:32:44;;;;;;;8.65;1.70;;;15.30;96.80;;;;;;5056184;28;20037;-69
2022/04/09 10:35:38;;;;;;;8.45;1.50;;;16.90;75.30;;;;;;5053524;28;20414;-68
2022/04/09 10:38:07;;;;;;;7.03;1.50;;;18.80;79.20;;;;;;5055081;28;20078;-68
2022/04/09 10:40:56;;;;;;;8.25;1.40;;;18.40;53.10;;;;;;5053896;28;20021;-65
2022/04/09 10:43:22;;;;;;;7.15;1.40;;;19.50;54.80;;;;;;5054664;28;20143;-65
2022/04/09 10:46:06;;;;;;;8.35;1.75;;;16.30;51.10;;;;;;5052144;28;20565;-67
2022/04/09 10:48:33;;;;;;;7.93;1.20;;;14.60;60.50;;;;;;5053408;28;20033;-67
2022/04/09 10:51:11;;;;;;;7.25;1.33;;;12.80;99.90;;;;;;5053115;28;20029;-68
2022/04/09 10:53:48;;;;;;;6.50;1.10;;;11.50;99.90;;;;;;5049691;28;20021;-67
2022/04/09 10:56:20;;;;;;;6.53;0.98;;;10.80;99.90;;;;;;5054573;28;20025;-67
2022/04/09 10:59:00;;;;;;;6.15;1.00;;;9.90;99.90;;;;;;5050187;28;20044;-67
2022/04/09 11:01:46;;;;;;;5.50;0.95;;;9.20;99.90;;;;;;5051979;28;20037;-67
2022/04/09 11:04:36;;;;;;;6.13;1.00;;;8.60;99.90;;;;;;5050419;28;20040;-67
2022/04/09 11:07:21;;;;;;;8.20;1.48;;;8.30;99.90;;;;;;5054557;28;20152;-67
2022/04/09 11:09:56;;;;;;;6.97;1.27;;;8.00;99.90;;;;;;5048410;28;20044;-67
2022/04/09 11:12:27;;;;;;;5.03;0.88;;;8.00;99.90;;;;;;5050707;28;20028;-67
2022/04/09 11:14:58;;;;;;;7.82;1.38;;;9.30;99.90;;;;;;5056548;28;20086;-68
2022/04/09 11:17:33;;;;;;;8.43;1.20;;;9.40;99.90;;;;;;5053356;28;20029;-67
2022/04/09 11:20:05;;;;;;;9.70;2.50;;;10.60;99.90;;;;;;5055802;28;20085;-67
2022/04/09 11:22:40;;;;;;;9.00;1.52;;;12.60;99.90;;;;;;5053079;28;20097;-68
2022/04/09 11:25:20;;;;;;;5.53;1.10;;;13.90;99.90;;;;;;5049389;28;20045;-68
2022/04/09 11:27:46;;;;;;;8.32;1.70;;;14.80;99.90;;;;;;5052403;28;20025;-68
2022/04/09 11:30:12;;;;;;;7.45;1.65;;;15.60;99.90;;;;;;5052371;28;20029;-68
2022/04/09 11:32:38;;;;;;;12.95;1.90;;;16.70;95.80;;;;;;5057868;28;20032;-69
2022/04/09 11:35:10;;;;;;;11.98;1.67;;;15.70;93.50;;;;;;5059685;28;20033;-69
2022/04/09 11:37:42;;;;;;;10.48;1.60;;;16.10;95.40;;;;;;5063977;28;20135;-67
2022/04/09 11:40:09;;;;;;;9.95;1.77;;;15.10;97.80;;;;;;5061623;28;20032;-66
2022/04/09 11:42:48;;;;;;;12.68;2.10;;;14.10;99.90;;;;;;5058904;28;20025;-67
2022/04/09 11:45:19;;;;;;;11.05;1.95;;;13.10;99.90;;;;;;5058473;28;20035;-66
2022/04/09 11:47:45;;;;;;;9.43;1.80;;;12.80;99.90;;;;;;5061157;28;20056;-66
2022/04/09 11:50:15;;;;;;;10.68;1.88;;;12.20;99.90;;;;;;5060808;28;20033;-67
2022/04/09 11:52:41;;;;;;;8.52;1.63;;;12.00;99.90;;;;;;5062530;28;20029;-66
2022/04/09 11:55:10;;;;;;;8.35;1.15;;;12.20;99.90;;;;;;5062528;28;20025;-67
2022/04/09 11:57:37;;;;;;;7.65;1.35;;;12.50;99.90;;;;;;5061722;28;20057;-66
2022/04/09 12:00:07;;;;;;;11.05;1.60;;;13.10;99.90;;;;;;5062028;28;20029;-66
2022/04/09 12:02:35;;;;;;;7.70;1.58;;;13.80;99.90;;;;;;5062140;28;20025;-67
2022/04/09 12:05:02;;;;;;;6.88;1.30;;;14.20;99.90;;;;;;5059786;28;20067;-66
2022/04/09 12:07:28;;;;;;;8.98;1.63;;;15.30;99.90;;;;;;5059702;28;20178;-66
2022/04/09 12:09:54;;;;;;;6.35;1.50;;;15.20;98.10;;;;;;5062324;28;20049;-66
2022/04/09 12:12:21;;;;;;;6.40;1.30;;;15.10;79.60;;;;;;5055574;28;20041;-67
2022/04/09 12:14:57;;;;;;;6.75;1.23;;;15.80;92.00;;;;;;5062255;28;20079;-67
2022/04/09 12:17:32;;;;;;;8.32;1.20;;;15.90;85.80;;;;;;5059998;28;20052;-67
2022/04/09 12:19:58;;;;;;;7.38;1.08;;;15.90;88.20;;;;;;5062407;28;20020;-66
2022/04/09 12:22:24;;;;;;;6.43;1.35;;;16.00;82.80;;;;;;5058600;28;20535;-66
2022/04/09 12:24:54;;;;;;;6.75;1.42;;;15.60;70.30;;;;;;5056491;28;20052;-66
2022/04/09 12:27:46;;;;;;;10.00;2.03;;;15.10;98.30;;;;;;5056763;28;20017;-66
2022/04/09 12:30:12;;;;;;;;;;;14.50;99.90;;;;;;5058666;28;20029;-66
2022/04/09 12:32:41;;;;;;;7.53;1.20;;;13.90;99.90;;;;;;5050757;28;19912;-67
2022/04/09 12:35:10;;;;;;;8.27;1.27;;;12.60;99.90;;;;;;5046946;28;20100;-67
2022/04/09 12:37:47;;;;;;;7.82;1.30;;;12.10;99.90;;;;;;5056947;28;20022;-67
2022/04/09 12:40:21;;;;;;;9.45;1.52;;;11.60;99.90;;;;;;5054255;28;20029;-66
2022/04/09 12:42:48;;;;;;;6.72;1.20;;;11.10;99.90;;;;;;5053087;28;20017;-67
2022/04/09 12:45:16;;;;;;;9.55;2.95;;;10.90;99.90;;;;;;5054031;28;20029;-67
2022/04/09 12:47:53;;;;;;;6.63;1.30;;;10.90;99.90;;;;;;5055352;28;20033;-66
2022/04/09 12:50:28;;;;;;;6.80;1.20;;;10.60;99.90;;;;;;5044771;28;20029;-66